createdAt,value
2019-04-10T00:00:48.248Z,8.79
2019-04-10T00:01:48.933Z,8.86
2019-04-10T00:02:48.225Z,8.86
2019-04-10T00:03:48.334Z,8.82
2019-04-10T00:04:48.159Z,8.84
2019-04-10T00:05:48.140Z,8.84
2019-04-10T00:06:48.142Z,8.77
2019-04-10T00:07:48.089Z,8.74
2019-04-10T00:08:48.068Z,8.72
2019-04-10T00:09:48.051Z,8.75
2019-04-10T00:10:48.044Z,8.72
2019-04-10T00:11:48.001Z,8.74
2019-04-10T00:12:47.980Z,8.69
2019-04-10T00:13:48.976Z,8.66
2019-04-10T00:14:48.359Z,8.71
2019-04-10T00:15:48.719Z,8.68
2019-04-10T00:16:48.837Z,8.66
2019-04-10T00:17:47.866Z,8.68
2019-04-10T00:18:48.440Z,8.60
2019-04-10T00:19:47.820Z,8.59
2019-04-10T00:20:48.971Z,8.57
2019-04-10T00:21:47.777Z,8.61
2019-04-10T00:22:48.648Z,8.64
2019-04-10T00:23:47.734Z,8.59
2019-04-10T00:24:48.352Z,8.61
2019-04-10T00:25:48.709Z,8.54
2019-04-10T00:26:48.035Z,8.54
2019-04-10T00:27:47.641Z,8.39
2019-04-10T00:28:47.713Z,8.54
2019-04-10T00:29:48.695Z,8.45
2019-04-10T00:30:47.621Z,8.50
2019-04-10T00:31:48.668Z,8.42
2019-04-10T00:32:48.098Z,8.39
2019-04-10T00:33:47.508Z,8.44
2019-04-10T00:34:47.723Z,8.41
2019-04-10T00:35:47.700Z,8.39
2019-04-10T00:36:47.449Z,8.31
2019-04-10T00:37:47.415Z,8.35
2019-04-10T00:38:48.299Z,8.28
2019-04-10T00:39:47.373Z,8.34
2019-04-10T00:40:47.848Z,8.39
2019-04-10T00:41:48.264Z,8.24
2019-04-10T00:42:47.399Z,8.27
2019-04-10T00:43:47.277Z,8.27
2019-04-10T00:44:48.036Z,8.32
2019-04-10T00:45:47.233Z,8.31
2019-04-10T00:46:47.208Z,8.39
2019-04-10T00:47:47.743Z,8.31
2019-04-10T00:48:48.089Z,8.31
2019-04-10T00:49:48.184Z,8.23
2019-04-10T00:50:47.120Z,8.17
2019-04-10T00:51:47.815Z,8.18
2019-04-10T00:52:47.082Z,8.21
2019-04-10T00:53:47.564Z,8.16
2019-04-10T00:54:47.026Z,8.06
2019-04-10T00:55:48.077Z,8.16
2019-04-10T00:56:46.979Z,8.08
2019-04-10T00:57:47.738Z,8.05
2019-04-10T00:58:47.884Z,8.06
2019-04-10T00:59:46.912Z,8.03
2019-04-10T01:00:47.623Z,8.01
2019-04-10T01:01:47.639Z,8.01
2019-04-10T01:02:47.082Z,8.02
2019-04-10T01:03:48.490Z,7.95
2019-04-10T01:04:46.802Z,7.93
2019-04-10T01:05:47.143Z,7.95
2019-04-10T01:06:46.758Z,7.95
2019-04-10T01:07:47.102Z,7.90
2019-04-10T01:08:46.870Z,7.83
2019-04-10T01:09:46.680Z,7.83
2019-04-10T01:10:46.657Z,7.84
2019-04-10T01:11:47.515Z,7.81
2019-04-10T01:12:46.622Z,7.75
2019-04-10T01:13:47.400Z,7.75
2019-04-10T01:14:47.493Z,7.77
2019-04-10T01:15:46.901Z,7.77
2019-04-10T01:16:47.383Z,7.84
2019-04-10T01:17:46.673Z,7.80
2019-04-10T01:18:47.715Z,7.69
2019-04-10T01:19:46.449Z,7.74
2019-04-10T01:20:46.428Z,7.70
2019-04-10T01:21:46.513Z,7.66
2019-04-10T01:22:47.592Z,7.72
2019-04-10T01:23:46.822Z,7.66
2019-04-10T01:24:46.333Z,7.66
2019-04-10T01:25:46.477Z,7.66
2019-04-10T01:26:46.287Z,7.67
2019-04-10T01:27:46.263Z,7.64
2019-04-10T01:28:47.100Z,7.64
2019-04-10T01:29:46.218Z,7.64
2019-04-10T01:30:46.554Z,7.74
2019-04-10T01:31:46.172Z,7.61
2019-04-10T01:32:46.150Z,7.62
2019-04-10T01:33:47.236Z,7.62
2019-04-10T01:34:46.102Z,7.58
2019-04-10T01:35:46.718Z,7.64
2019-04-10T01:36:46.069Z,7.67
2019-04-10T01:37:52.063Z,7.64
2019-04-10T01:38:46.247Z,7.59
2019-04-10T01:39:46.469Z,7.64
2019-04-10T01:40:45.964Z,7.67
2019-04-10T01:41:46.027Z,7.64
2019-04-10T01:42:59.917Z,7.55
2019-04-10T01:43:46.803Z,7.48
2019-04-10T01:44:46.769Z,7.44
2019-04-10T01:45:45.993Z,7.48
2019-04-10T01:46:46.580Z,7.44
2019-04-10T01:47:45.798Z,7.37
2019-04-10T01:48:45.786Z,7.33
2019-04-10T01:49:46.853Z,7.37
2019-04-10T01:50:46.471Z,7.29
2019-04-10T01:51:45.706Z,7.31
2019-04-10T01:52:45.681Z,7.29
2019-04-10T01:53:46.140Z,7.31
2019-04-10T01:54:45.725Z,7.28
2019-04-10T01:55:45.611Z,7.22
2019-04-10T01:56:46.042Z,7.21
2019-04-10T01:57:46.357Z,7.22
2019-04-10T01:58:45.540Z,7.19
2019-04-10T01:59:45.906Z,7.13
2019-04-10T02:00:45.969Z,7.11
2019-04-10T02:01:45.469Z,7.07
2019-04-10T02:02:45.528Z,7.08
2019-04-10T02:03:46.503Z,7.07
2019-04-10T02:04:45.397Z,7.04
2019-04-10T02:05:45.377Z,6.96
2019-04-10T02:06:45.441Z,6.92
2019-04-10T02:07:58.666Z,6.95
2019-04-10T02:08:45.746Z,6.86
2019-04-10T02:09:45.879Z,6.86
2019-04-10T02:10:45.259Z,6.90
2019-04-10T02:11:46.070Z,6.80
2019-04-10T02:12:45.210Z,6.82
2019-04-10T02:13:45.191Z,6.75
2019-04-10T02:14:45.162Z,6.83
2019-04-10T02:15:46.081Z,6.78
2019-04-10T02:16:45.285Z,6.71
2019-04-10T02:17:45.091Z,6.71
2019-04-10T02:18:45.733Z,6.77
2019-04-10T02:19:45.151Z,6.65
2019-04-10T02:20:45.206Z,6.70
2019-04-10T02:21:44.996Z,6.70
2019-04-10T02:22:45.864Z,6.64
2019-04-10T02:23:44.949Z,6.67
2019-04-10T02:24:44.927Z,6.60
2019-04-10T02:25:45.147Z,6.57
2019-04-10T02:26:45.645Z,6.56
2019-04-10T02:27:44.854Z,6.67
2019-04-10T02:28:45.011Z,6.59
2019-04-10T02:29:44.806Z,6.54
2019-04-10T02:30:45.981Z,6.57
2019-04-10T02:31:46.133Z,6.47
2019-04-10T02:32:47.671Z,6.47
2019-04-10T02:33:44.859Z,6.43
2019-04-10T02:34:46.810Z,6.43
2019-04-10T02:35:45.501Z,6.36
2019-04-10T02:36:44.674Z,6.41
2019-04-10T02:37:44.617Z,6.31
2019-04-10T02:38:58.800Z,6.36
2019-04-10T02:39:47.762Z,6.26
2019-04-10T02:40:45.596Z,6.26
2019-04-10T02:41:45.722Z,6.28
2019-04-10T02:42:45.196Z,6.25
2019-04-10T02:43:45.330Z,6.29
2019-04-10T02:44:45.751Z,6.16
2019-04-10T02:45:44.588Z,6.20
2019-04-10T02:46:45.123Z,6.22
2019-04-10T02:47:44.998Z,6.22
2019-04-10T02:48:44.352Z,6.25
2019-04-10T02:49:44.657Z,6.22
2019-04-10T02:50:44.959Z,6.15
2019-04-10T02:51:45.339Z,6.12
2019-04-10T02:52:45.721Z,6.19
2019-04-10T02:53:45.835Z,6.12
2019-04-10T02:54:45.862Z,6.05
2019-04-10T02:55:44.189Z,6.06
2019-04-10T02:56:45.729Z,6.12
2019-04-10T02:57:45.746Z,6.17
2019-04-10T02:58:44.566Z,6.09
2019-04-10T02:59:45.354Z,6.07
2019-04-10T03:00:44.318Z,6.12
2019-04-10T03:01:44.119Z,6.12
2019-04-10T03:02:45.308Z,6.09
2019-04-10T03:03:44.711Z,6.05
2019-04-10T03:04:44.534Z,6.07
2019-04-10T03:05:44.671Z,5.99
2019-04-10T03:06:45.217Z,6.02
2019-04-10T03:07:44.341Z,6.05
2019-04-10T03:08:59.023Z,5.99
2019-04-10T03:09:56.264Z,5.98
2019-04-10T03:10:49.603Z,5.91
2019-04-10T03:11:43.982Z,5.94
2019-04-10T03:12:44.303Z,5.88
2019-04-10T03:13:45.180Z,5.88
2019-04-10T03:14:45.951Z,5.92
2019-04-10T03:15:43.918Z,5.87
2019-04-10T03:16:43.808Z,5.87
2019-04-10T03:17:44.101Z,5.80
2019-04-10T03:18:43.627Z,5.87
2019-04-10T03:19:43.600Z,5.88
2019-04-10T03:20:44.645Z,5.77
2019-04-10T03:21:43.555Z,5.74
2019-04-10T03:22:43.529Z,5.80
2019-04-10T03:23:43.501Z,5.76
2019-04-10T03:24:44.395Z,5.73
2019-04-10T03:25:43.456Z,5.67
2019-04-10T03:26:43.428Z,5.70
2019-04-10T03:27:43.409Z,5.62
2019-04-10T03:28:43.381Z,5.69
2019-04-10T03:29:44.871Z,5.62
2019-04-10T03:30:44.313Z,5.62
2019-04-10T03:31:45.057Z,5.65
2019-04-10T03:32:48.508Z,5.62
2019-04-10T03:33:47.308Z,5.58
2019-04-10T03:34:45.688Z,5.64
2019-04-10T03:35:43.207Z,5.59
2019-04-10T03:36:43.418Z,5.54
2019-04-10T03:37:43.159Z,5.58
2019-04-10T03:38:55.287Z,5.58
2019-04-10T03:39:43.117Z,5.44
2019-04-10T03:40:43.735Z,5.44
2019-04-10T03:41:43.972Z,5.44
2019-04-10T03:42:43.369Z,5.44
2019-04-10T03:43:43.770Z,5.40
2019-04-10T03:44:43.051Z,5.37
2019-04-10T03:45:42.964Z,5.40
2019-04-10T03:46:42.955Z,5.36
2019-04-10T03:47:43.863Z,5.37
2019-04-10T03:48:42.895Z,5.34
2019-04-10T03:49:42.868Z,5.31
2019-04-10T03:50:43.689Z,5.31
2019-04-10T03:51:43.041Z,5.47
2019-04-10T03:52:43.279Z,5.38
2019-04-10T03:53:42.766Z,5.43
2019-04-10T03:54:43.911Z,5.40
2019-04-10T03:55:43.255Z,5.36
2019-04-10T03:56:42.697Z,5.43
2019-04-10T03:57:42.848Z,5.40
2019-04-10T03:58:42.645Z,5.34
2019-04-10T03:59:42.626Z,5.41
2019-04-10T04:00:42.594Z,5.37
2019-04-10T04:01:43.044Z,5.40
2019-04-10T04:02:42.556Z,5.36
2019-04-10T04:03:42.716Z,5.33
2019-04-10T04:04:42.501Z,5.22
2019-04-10T04:05:42.620Z,5.16
2019-04-10T04:06:42.451Z,5.19
2019-04-10T04:07:43.142Z,5.36
2019-04-10T04:08:42.397Z,5.34
2019-04-10T04:09:42.374Z,5.40
2019-04-10T04:10:42.620Z,5.38
2019-04-10T04:11:42.321Z,5.20
2019-04-10T04:12:42.594Z,5.18
2019-04-10T04:13:42.268Z,5.36
2019-04-10T04:14:42.248Z,5.22
2019-04-10T04:15:42.225Z,5.23
2019-04-10T04:16:42.227Z,5.19
2019-04-10T04:17:42.290Z,5.19
2019-04-10T04:18:42.147Z,5.26
2019-04-10T04:19:42.175Z,5.23
2019-04-10T04:20:43.244Z,5.18
2019-04-10T04:21:42.071Z,5.18
2019-04-10T04:22:43.069Z,5.18
2019-04-10T04:23:42.638Z,5.22
2019-04-10T04:24:42.029Z,5.19
2019-04-10T04:25:42.798Z,5.16
2019-04-10T04:26:41.947Z,5.19
2019-04-10T04:27:42.085Z,5.13
2019-04-10T04:28:41.922Z,5.12
2019-04-10T04:29:41.870Z,5.18
2019-04-10T04:30:42.040Z,5.16
2019-04-10T04:31:42.028Z,5.12
2019-04-10T04:32:42.074Z,5.16
2019-04-10T04:33:41.772Z,5.10
2019-04-10T04:34:41.745Z,5.18
2019-04-10T04:35:42.669Z,5.15
2019-04-10T04:36:41.695Z,5.13
2019-04-10T04:37:42.244Z,5.13
2019-04-10T04:38:41.660Z,5.10
2019-04-10T04:39:41.637Z,5.05
2019-04-10T04:40:42.045Z,5.02
2019-04-10T04:41:42.211Z,5.04
2019-04-10T04:42:42.659Z,5.07
2019-04-10T04:43:43.401Z,4.97
2019-04-10T04:44:41.495Z,5.00
2019-04-10T04:45:42.248Z,5.07
2019-04-10T04:46:41.447Z,5.04
2019-04-10T04:47:41.421Z,5.08
2019-04-10T04:48:41.394Z,4.98
2019-04-10T04:49:42.096Z,5.08
2019-04-10T04:50:41.589Z,5.10
2019-04-10T04:51:41.661Z,5.00
2019-04-10T04:52:41.318Z,5.02
2019-04-10T04:53:41.997Z,5.10
2019-04-10T04:54:41.528Z,5.15
2019-04-10T04:55:41.243Z,5.01
2019-04-10T04:56:42.275Z,5.07
2019-04-10T04:57:42.290Z,5.02
2019-04-10T04:58:41.145Z,4.95
2019-04-10T04:59:41.119Z,5.05
2019-04-10T05:00:41.746Z,4.98
2019-04-10T05:01:41.070Z,4.94
2019-04-10T05:02:41.047Z,5.01
2019-04-10T05:03:41.922Z,4.94
2019-04-10T05:04:41.697Z,4.95
2019-04-10T05:05:41.189Z,4.90
2019-04-10T05:06:41.754Z,4.84
2019-04-10T05:07:41.771Z,4.86
2019-04-10T05:08:41.973Z,4.86
2019-04-10T05:09:42.131Z,4.79
2019-04-10T05:10:41.872Z,4.83
2019-04-10T05:11:40.819Z,5.00
2019-04-10T05:12:40.915Z,4.95
2019-04-10T05:13:40.767Z,4.95
2019-04-10T05:14:41.841Z,4.90
2019-04-10T05:15:40.872Z,4.87
2019-04-10T05:16:41.641Z,4.92
2019-04-10T05:17:41.585Z,4.90
2019-04-10T05:18:40.670Z,5.00
2019-04-10T05:19:40.646Z,4.89
2019-04-10T05:20:45.972Z,5.00
2019-04-10T05:21:41.495Z,5.00
2019-04-10T05:22:41.527Z,4.90
2019-04-10T05:23:40.680Z,5.00
2019-04-10T05:24:40.517Z,5.01
2019-04-10T05:25:41.437Z,5.00
2019-04-10T05:26:40.608Z,4.97
2019-04-10T05:27:41.362Z,4.95
2019-04-10T05:28:40.389Z,4.94
2019-04-10T05:29:40.882Z,4.94
2019-04-10T05:30:41.125Z,5.05
2019-04-10T05:31:40.534Z,4.97
2019-04-10T05:32:40.288Z,5.08
2019-04-10T05:33:40.771Z,5.10
2019-04-10T05:34:40.439Z,5.07
2019-04-10T05:35:40.226Z,5.00
2019-04-10T05:36:40.186Z,5.15
2019-04-10T05:37:40.164Z,5.13
2019-04-10T05:38:40.137Z,5.13
2019-04-10T05:39:46.163Z,5.13
2019-04-10T05:40:40.146Z,5.18
2019-04-10T05:41:40.062Z,5.16
2019-04-10T05:42:40.036Z,5.20
2019-04-10T05:43:40.034Z,5.16
2019-04-10T05:44:40.231Z,5.05
2019-04-10T05:45:40.165Z,5.15
2019-04-10T05:46:40.863Z,5.22
2019-04-10T05:47:39.908Z,5.19
2019-04-10T05:48:39.887Z,5.16
2019-04-10T05:49:39.862Z,5.22
2019-04-10T05:50:39.926Z,5.22
2019-04-10T05:51:39.809Z,5.19
2019-04-10T05:52:39.785Z,5.36
2019-04-10T05:53:40.769Z,5.36
2019-04-10T05:54:39.736Z,5.44
2019-04-10T05:55:40.642Z,5.37
2019-04-10T05:56:40.589Z,5.46
2019-04-10T05:57:40.653Z,5.43
2019-04-10T05:58:40.779Z,5.36
2019-04-10T05:59:40.447Z,5.37
2019-04-10T06:00:39.584Z,5.34
2019-04-10T06:01:41.228Z,5.38
2019-04-10T06:02:39.886Z,5.46
2019-04-10T06:03:39.508Z,5.43
2019-04-10T06:04:39.483Z,5.44
2019-04-10T06:05:40.452Z,5.55
2019-04-10T06:06:39.434Z,5.51
2019-04-10T06:07:39.406Z,5.58
2019-04-10T06:08:39.497Z,5.59
2019-04-10T06:09:52.007Z,5.65
2019-04-10T06:10:39.529Z,5.67
2019-04-10T06:11:39.510Z,5.67
2019-04-10T06:12:39.280Z,5.62
2019-04-10T06:13:39.258Z,5.74
2019-04-10T06:14:40.072Z,5.69
2019-04-10T06:15:39.228Z,5.80
2019-04-10T06:16:39.182Z,5.81
2019-04-10T06:17:39.159Z,5.81
2019-04-10T06:18:39.589Z,5.84
2019-04-10T06:19:39.105Z,5.91
2019-04-10T06:20:39.688Z,5.83
2019-04-10T06:21:39.727Z,5.88
2019-04-10T06:22:39.034Z,5.94
2019-04-10T06:23:39.315Z,6.01
2019-04-10T06:24:38.986Z,5.94
2019-04-10T06:25:41.499Z,5.98
2019-04-10T06:26:39.526Z,5.99
2019-04-10T06:27:38.941Z,6.01
2019-04-10T06:28:40.035Z,6.10
2019-04-10T06:29:39.316Z,6.07
2019-04-10T06:30:39.804Z,6.06
2019-04-10T06:31:39.097Z,6.13
2019-04-10T06:32:39.759Z,6.09
2019-04-10T06:33:38.759Z,6.19
2019-04-10T06:34:39.689Z,6.25
2019-04-10T06:35:39.540Z,6.26
2019-04-10T06:36:39.659Z,6.32
2019-04-10T06:37:38.659Z,6.28
2019-04-10T06:38:39.149Z,6.28
2019-04-10T06:39:38.625Z,6.31
2019-04-10T06:40:38.720Z,6.35
2019-04-10T06:41:39.063Z,6.31
2019-04-10T06:42:46.096Z,6.39
2019-04-10T06:43:39.237Z,6.44
2019-04-10T06:44:38.490Z,6.38
2019-04-10T06:45:38.464Z,6.49
2019-04-10T06:46:39.400Z,6.44
2019-04-10T06:47:38.445Z,6.49
2019-04-10T06:48:38.536Z,6.49
2019-04-10T06:49:38.656Z,6.49
2019-04-10T06:50:39.240Z,6.56
2019-04-10T06:51:38.322Z,6.54
2019-04-10T06:52:38.734Z,6.53
2019-04-10T06:53:39.303Z,6.57
2019-04-10T06:54:38.548Z,6.59
2019-04-10T06:55:38.557Z,6.60
2019-04-10T06:56:38.198Z,6.64
2019-04-10T06:57:47.659Z,6.62
2019-04-10T06:58:38.186Z,6.72
2019-04-10T06:59:38.119Z,6.71
2019-04-10T07:00:39.071Z,6.74
2019-04-10T07:01:44.261Z,6.80
2019-04-10T07:02:38.834Z,6.87
2019-04-10T07:03:49.563Z,6.78
2019-04-10T07:04:46.143Z,6.93
2019-04-10T07:05:49.464Z,6.90
2019-04-10T07:06:51.589Z,6.90
2019-04-10T07:07:47.405Z,7.03
2019-04-10T07:08:38.178Z,7.13
2019-04-10T07:09:38.029Z,7.13
2019-04-10T07:10:47.995Z,7.14
2019-04-10T07:11:38.615Z,7.21
2019-04-10T07:12:37.837Z,7.25
2019-04-10T07:13:40.133Z,7.26
2019-04-10T07:14:38.619Z,7.29
2019-04-10T07:15:39.708Z,7.37
2019-04-10T07:16:37.712Z,7.43
2019-04-10T07:17:41.047Z,7.40
2019-04-10T07:18:38.641Z,7.47
2019-04-10T07:19:37.637Z,7.48
2019-04-10T07:20:37.882Z,7.43
2019-04-10T07:21:38.578Z,7.44
2019-04-10T07:22:43.639Z,7.55
2019-04-10T07:23:38.637Z,7.56
2019-04-10T07:24:41.191Z,7.58
2019-04-10T07:25:37.572Z,7.58
2019-04-10T07:26:40.675Z,7.61
2019-04-10T07:27:39.991Z,7.59
2019-04-10T07:28:38.970Z,7.66
2019-04-10T07:29:38.314Z,7.77
2019-04-10T07:30:38.076Z,7.80
2019-04-10T07:31:38.261Z,7.69
2019-04-10T07:32:41.209Z,7.78
2019-04-10T07:33:37.319Z,7.75
2019-04-10T07:34:37.282Z,7.85
2019-04-10T07:35:38.314Z,7.90
2019-04-10T07:36:41.152Z,7.80
2019-04-10T07:37:37.235Z,7.91
2019-04-10T07:38:37.256Z,7.93
2019-04-10T07:39:37.463Z,7.93
2019-04-10T07:40:37.144Z,7.99
2019-04-10T07:41:37.771Z,8.16
2019-04-10T07:42:40.265Z,8.11
2019-04-10T07:43:37.070Z,8.20
2019-04-10T07:44:37.045Z,8.18
2019-04-10T07:45:37.023Z,8.21
2019-04-10T07:46:38.115Z,8.23
2019-04-10T07:47:37.994Z,8.21
2019-04-10T07:48:37.840Z,8.26
2019-04-10T07:49:39.431Z,8.31
2019-04-10T07:50:37.154Z,8.35
2019-04-10T07:51:36.882Z,8.44
2019-04-10T07:52:37.302Z,8.35
2019-04-10T07:53:37.298Z,8.49
2019-04-10T07:54:36.813Z,8.53
2019-04-10T07:55:37.408Z,8.54
2019-04-10T07:56:37.518Z,8.52
2019-04-10T07:57:36.756Z,8.44
2019-04-10T07:58:37.697Z,8.54
2019-04-10T07:59:37.573Z,8.57
2019-04-10T08:00:36.746Z,8.50
2019-04-10T08:01:37.559Z,8.52
2019-04-10T08:02:36.647Z,8.63
2019-04-10T08:03:37.384Z,8.68
2019-04-10T08:04:37.387Z,8.64
2019-04-10T08:05:37.498Z,8.79
2019-04-10T08:06:37.408Z,8.74
2019-04-10T08:07:38.816Z,8.87
2019-04-10T08:08:36.491Z,8.74
2019-04-10T08:09:37.557Z,8.69
2019-04-10T08:10:36.882Z,8.79
2019-04-10T08:11:36.429Z,8.81
2019-04-10T08:12:44.418Z,8.82
2019-04-10T08:13:36.467Z,8.81
2019-04-10T08:14:36.352Z,8.87
2019-04-10T08:15:36.329Z,8.90
2019-04-10T08:16:36.307Z,8.93
2019-04-10T08:17:36.834Z,8.95
2019-04-10T08:18:37.185Z,8.95
2019-04-10T08:19:36.987Z,8.96
2019-04-10T08:20:36.222Z,9.02
2019-04-10T08:21:36.248Z,9.00
2019-04-10T08:22:37.161Z,9.11
2019-04-10T08:23:36.212Z,9.15
2019-04-10T08:24:36.450Z,9.27
2019-04-10T08:25:36.108Z,9.21
2019-04-10T08:26:36.696Z,9.24
2019-04-10T08:27:36.248Z,9.29
2019-04-10T08:28:36.958Z,9.40
2019-04-10T08:29:36.446Z,9.34
2019-04-10T08:30:36.242Z,9.47
2019-04-10T08:31:35.968Z,9.51
2019-04-10T08:32:47.474Z,9.51
2019-04-10T08:33:36.687Z,9.52
2019-04-10T08:34:35.902Z,9.48
2019-04-10T08:35:35.878Z,9.55
2019-04-10T08:36:35.854Z,9.51
2019-04-10T08:37:36.873Z,9.58
2019-04-10T08:38:35.809Z,9.62
2019-04-10T08:39:41.166Z,9.66
2019-04-10T08:40:36.269Z,9.70
2019-04-10T08:41:35.742Z,9.67
2019-04-10T08:42:35.747Z,9.63
2019-04-10T08:43:35.699Z,9.73
2019-04-10T08:44:36.126Z,9.73
2019-04-10T08:45:44.204Z,9.82
2019-04-10T08:46:35.813Z,9.87
2019-04-10T08:47:35.614Z,9.95
2019-04-10T08:48:35.586Z,9.91
2019-04-10T08:49:35.567Z,9.95
2019-04-10T08:50:36.480Z,9.94
2019-04-10T08:51:35.525Z,9.99
2019-04-10T08:52:35.501Z,9.95
2019-04-10T08:53:36.233Z,10.07
2019-04-10T08:54:36.376Z,10.09
2019-04-10T08:55:35.432Z,10.12
2019-04-10T08:56:36.443Z,10.15
2019-04-10T08:57:36.207Z,10.25
2019-04-10T08:58:35.372Z,10.27
2019-04-10T08:59:36.773Z,10.20
2019-04-10T09:00:36.410Z,10.36
2019-04-10T09:01:35.525Z,10.27
2019-04-10T09:02:35.893Z,10.31
2019-04-10T09:03:35.255Z,10.30
2019-04-10T09:04:35.234Z,10.31
2019-04-10T09:05:35.436Z,10.24
2019-04-10T09:06:35.634Z,10.20
2019-04-10T09:07:35.914Z,10.27
2019-04-10T09:08:35.179Z,10.38
2019-04-10T09:09:35.138Z,10.39
2019-04-10T09:10:35.104Z,10.57
2019-04-10T09:11:35.443Z,10.57
2019-04-10T09:12:35.060Z,10.58
2019-04-10T09:13:35.038Z,10.68
2019-04-10T09:14:35.091Z,10.72
2019-04-10T09:15:36.057Z,10.67
2019-04-10T09:16:34.975Z,10.68
2019-04-10T09:17:35.547Z,10.75
2019-04-10T09:18:34.931Z,10.77
2019-04-10T09:19:36.162Z,10.75
2019-04-10T09:20:35.110Z,10.82
2019-04-10T09:21:34.868Z,10.90
2019-04-10T09:22:55.624Z,10.94
2019-04-10T09:23:42.558Z,10.90
2019-04-10T09:24:34.802Z,11.02
2019-04-10T09:25:35.373Z,11.02
2019-04-10T09:26:34.772Z,11.19
2019-04-10T09:27:35.861Z,11.19
2019-04-10T09:28:34.874Z,11.25
2019-04-10T09:29:34.697Z,11.30
2019-04-10T09:30:35.359Z,11.22
2019-04-10T09:31:34.675Z,11.37
2019-04-10T09:32:34.784Z,11.37
2019-04-10T09:33:34.844Z,11.31
2019-04-10T09:34:34.590Z,11.30
2019-04-10T09:35:34.567Z,11.33
2019-04-10T09:36:35.503Z,11.38
2019-04-10T09:37:34.567Z,11.41
2019-04-10T09:38:34.847Z,11.44
2019-04-10T09:39:34.486Z,11.45
2019-04-10T09:40:34.502Z,11.49
2019-04-10T09:41:34.442Z,11.52
2019-04-10T09:42:35.439Z,11.56
2019-04-10T09:43:34.402Z,11.58
2019-04-10T09:44:34.379Z,11.59
2019-04-10T09:45:35.028Z,11.65
2019-04-10T09:46:35.299Z,11.76
2019-04-10T09:47:34.754Z,11.73
2019-04-10T09:48:34.294Z,11.71
2019-04-10T09:49:40.419Z,11.77
2019-04-10T09:50:35.313Z,11.76
2019-04-10T09:51:34.248Z,11.81
2019-04-10T09:52:34.214Z,11.67
2019-04-10T09:53:35.178Z,11.77
2019-04-10T09:54:34.871Z,11.93
2019-04-10T09:55:34.164Z,11.85
2019-04-10T09:56:34.346Z,12.02
2019-04-10T09:57:34.604Z,12.03
2019-04-10T09:58:34.092Z,12.02
2019-04-10T09:59:36.899Z,12.07
2019-04-10T10:00:34.057Z,12.00
2019-04-10T10:01:34.029Z,11.97
2019-04-10T10:02:34.006Z,11.93
2019-04-10T10:03:34.597Z,12.02
2019-04-10T10:04:33.965Z,12.02
2019-04-10T10:05:34.849Z,12.10
2019-04-10T10:06:36.550Z,12.12
2019-04-10T10:07:34.802Z,12.15
2019-04-10T10:08:33.922Z,12.21
2019-04-10T10:09:34.679Z,12.40
2019-04-10T10:10:35.778Z,12.44
2019-04-10T10:11:34.118Z,12.37
2019-04-10T10:12:34.352Z,12.57
2019-04-10T10:13:33.989Z,12.58
2019-04-10T10:14:33.798Z,12.53
2019-04-10T10:15:33.748Z,12.55
2019-04-10T10:16:33.856Z,12.55
2019-04-10T10:17:34.831Z,12.61
2019-04-10T10:18:33.685Z,12.61
2019-04-10T10:19:34.243Z,12.66
2019-04-10T10:20:33.643Z,12.72
2019-04-10T10:21:34.629Z,12.72
2019-04-10T10:22:33.619Z,12.72
2019-04-10T10:23:33.918Z,12.57
2019-04-10T10:24:33.564Z,12.61
2019-04-10T10:25:33.544Z,12.36
2019-04-10T10:26:34.383Z,12.51
2019-04-10T10:27:34.254Z,12.51
2019-04-10T10:28:33.485Z,12.62
2019-04-10T10:29:33.591Z,12.66
2019-04-10T10:30:33.689Z,12.73
2019-04-10T10:31:33.425Z,12.94
2019-04-10T10:32:33.407Z,12.99
2019-04-10T10:33:34.071Z,13.19
2019-04-10T10:34:34.509Z,13.24
2019-04-10T10:35:33.548Z,13.39
2019-04-10T10:36:40.646Z,13.45
2019-04-10T10:37:33.315Z,13.62
2019-04-10T10:38:33.295Z,13.65
2019-04-10T10:39:33.281Z,13.76
2019-04-10T10:40:33.955Z,13.89
2019-04-10T10:41:33.941Z,14.03
2019-04-10T10:42:33.861Z,14.40
2019-04-10T10:43:34.291Z,14.66
2019-04-10T10:44:34.145Z,15.02
2019-04-10T10:45:33.174Z,15.00
2019-04-10T10:46:33.526Z,15.10
2019-04-10T10:47:33.142Z,15.07
2019-04-10T10:48:33.132Z,15.04
2019-04-10T10:49:33.109Z,15.33
2019-04-10T10:50:33.199Z,15.47
2019-04-10T10:51:33.078Z,15.60
2019-04-10T10:52:33.356Z,15.76
2019-04-10T10:53:33.045Z,16.08
2019-04-10T10:54:33.030Z,15.78
2019-04-10T10:55:33.777Z,15.98
2019-04-10T10:56:33.952Z,16.02
2019-04-10T10:57:33.321Z,15.73
2019-04-10T10:58:32.967Z,16.02
2019-04-10T10:59:33.562Z,16.22
2019-04-10T11:00:33.548Z,16.49
2019-04-10T11:01:32.921Z,15.99
2019-04-10T11:02:33.775Z,16.44
2019-04-10T11:03:34.070Z,16.77
2019-04-10T11:04:33.619Z,16.98
2019-04-10T11:05:33.354Z,17.02
2019-04-10T11:06:33.177Z,16.92
2019-04-10T11:07:33.071Z,17.13
2019-04-10T11:08:32.812Z,17.19
2019-04-10T11:09:34.097Z,16.74
2019-04-10T11:10:33.792Z,16.86
2019-04-10T11:11:32.771Z,17.02
2019-04-10T11:12:34.067Z,17.16
2019-04-10T11:13:33.178Z,17.22
2019-04-10T11:14:32.723Z,17.19
2019-04-10T11:15:32.738Z,17.20
2019-04-10T11:16:33.909Z,17.32
2019-04-10T11:17:34.152Z,17.41
2019-04-10T11:18:32.773Z,18.00
2019-04-10T11:19:32.651Z,18.64
2019-04-10T11:20:32.629Z,19.15
2019-04-10T11:21:32.615Z,19.67
2019-04-10T11:22:33.133Z,19.77
2019-04-10T11:23:33.753Z,20.14
2019-04-10T11:24:33.244Z,20.40
2019-04-10T11:25:32.558Z,20.40
2019-04-10T11:26:33.568Z,20.15
2019-04-10T11:27:34.240Z,20.03
2019-04-10T11:28:33.838Z,20.17
2019-04-10T11:29:32.778Z,20.02
2019-04-10T11:30:32.574Z,19.78
2019-04-10T11:31:33.284Z,19.20
2019-04-10T11:32:33.854Z,18.76
2019-04-10T11:33:33.024Z,18.13
2019-04-10T11:34:34.419Z,17.52
2019-04-10T11:35:32.450Z,17.34
2019-04-10T11:36:32.451Z,17.57
2019-04-10T11:38:33.575Z,18.18
2019-04-10T11:39:35.354Z,18.39
2019-04-10T11:40:34.123Z,18.30
2019-04-10T11:41:33.042Z,17.91
2019-04-10T11:42:33.341Z,17.20
2019-04-10T11:43:33.620Z,17.19
2019-04-10T11:44:33.534Z,17.59
2019-04-10T11:45:40.639Z,17.95
2019-04-10T11:46:32.283Z,18.42
2019-04-10T11:47:34.712Z,18.92
2019-04-10T11:48:32.346Z,18.86
2019-04-10T11:49:34.000Z,19.59
2019-04-10T11:50:34.576Z,20.11
2019-04-10T11:51:34.244Z,20.40
2019-04-10T11:52:38.638Z,20.19
2019-04-10T11:53:37.451Z,20.04
2019-04-10T11:54:34.770Z,19.62
2019-04-10T11:55:42.489Z,19.09
2019-04-10T11:56:33.869Z,19.72
2019-04-10T11:57:32.884Z,20.26
2019-04-10T11:58:33.419Z,20.58
2019-04-10T11:59:35.631Z,20.83
2019-04-10T12:00:34.214Z,20.85
2019-04-10T12:01:34.254Z,20.89
2019-04-10T12:02:34.357Z,20.95
2019-04-10T12:03:34.403Z,20.68
2019-04-10T12:04:44.547Z,20.24
2019-04-10T12:05:32.022Z,20.24
2019-04-10T12:06:33.803Z,19.62
2019-04-10T12:11:32.909Z,20.58
2019-04-10T12:12:31.938Z,20.93
2019-04-10T12:13:32.455Z,21.40
2019-04-10T12:14:31.952Z,20.63
2019-04-10T12:15:32.342Z,20.03
2019-04-10T12:16:31.891Z,19.82
2019-04-10T12:17:31.878Z,19.29
2019-04-10T12:18:32.840Z,18.79
2019-04-10T12:19:31.855Z,18.42
2019-04-10T12:20:31.844Z,19.27
2019-04-10T12:21:31.832Z,20.50
2019-04-10T12:22:31.818Z,21.33
2019-04-10T12:23:32.676Z,22.14
2019-04-10T12:24:32.249Z,22.74
2019-04-10T12:25:31.785Z,23.21
2019-04-10T12:26:31.848Z,23.79
2019-04-10T12:27:31.762Z,23.21
2019-04-10T12:28:31.891Z,22.49
2019-04-10T12:29:32.916Z,21.83
2019-04-10T12:30:31.734Z,21.01
2019-04-10T12:31:33.068Z,20.27
2019-04-10T12:32:32.548Z,20.90
2019-04-10T12:33:31.790Z,21.26
2019-04-10T12:34:32.157Z,21.50
2019-04-10T12:35:31.940Z,20.93
2019-04-10T12:36:31.668Z,20.19
2019-04-10T12:37:31.655Z,20.18
2019-04-10T12:38:31.939Z,19.97
2019-04-10T12:39:32.182Z,20.03
2019-04-10T12:40:32.864Z,20.02
2019-04-10T12:41:31.609Z,19.60
2019-04-10T12:42:32.346Z,19.49
2019-04-10T12:43:32.574Z,19.49
2019-04-10T12:44:31.742Z,19.19
2019-04-10T12:45:32.612Z,19.05
2019-04-10T12:46:31.551Z,18.83
2019-04-10T12:47:32.201Z,19.00
2019-04-10T12:48:31.553Z,19.16
2019-04-10T12:49:31.708Z,19.26
2019-04-10T12:50:31.502Z,19.27
2019-04-10T12:51:31.988Z,19.49
2019-04-10T12:52:32.377Z,19.62
2019-04-10T12:53:31.731Z,19.66
2019-04-10T12:54:31.443Z,19.64
2019-04-10T12:55:32.324Z,19.24
2019-04-10T12:56:32.266Z,18.91
2019-04-10T12:57:31.411Z,19.01
2019-04-10T12:58:31.395Z,19.41
2019-04-10T12:59:31.381Z,19.72
2019-04-10T13:00:31.832Z,20.15
2019-04-10T13:01:31.354Z,20.40
2019-04-10T13:02:31.343Z,20.82
2019-04-10T13:03:31.394Z,21.25
2019-04-10T13:04:32.300Z,20.92
2019-04-10T13:05:31.400Z,20.07
2019-04-10T13:06:31.738Z,20.52
2019-04-10T13:07:31.701Z,20.58
2019-04-10T13:08:50.898Z,21.32
2019-04-10T13:09:31.772Z,22.06
2019-04-10T13:10:31.682Z,22.73
2019-04-10T13:11:32.254Z,23.51
2019-04-10T13:12:31.327Z,23.20
2019-04-10T13:13:31.210Z,23.47
2019-04-10T13:14:31.201Z,23.84